createdAt,value
2018-09-28T00:02:12.146Z,23.00
2018-09-28T00:04:40.285Z,23.00
2018-09-28T00:07:08.404Z,23.00
2018-09-28T00:09:36.510Z,23.00
2018-09-28T00:12:04.657Z,23.00
2018-09-28T00:14:33.326Z,23.00
2018-09-28T00:17:01.470Z,23.00
2018-09-28T00:19:29.665Z,23.00
2018-09-28T00:21:57.774Z,23.00
2018-09-28T00:24:25.902Z,23.00
2018-09-28T00:26:54.018Z,23.00
2018-09-28T00:29:22.137Z,23.00
2018-09-28T00:31:50.249Z,23.00
2018-09-28T00:34:18.398Z,23.00
2018-09-28T00:36:46.582Z,23.00
2018-09-28T00:39:14.747Z,22.90
2018-09-28T00:41:42.897Z,22.90
2018-09-28T00:44:11.010Z,22.90
2018-09-28T00:46:39.112Z,23.00
2018-09-28T00:49:14.183Z,22.90
2018-09-28T00:51:42.458Z,22.90
2018-09-28T00:54:10.602Z,23.00
2018-09-28T00:56:38.769Z,23.00
2018-09-28T00:59:06.957Z,23.00
2018-09-28T01:01:35.070Z,22.90
2018-09-28T01:04:03.198Z,23.00
2018-09-28T01:06:31.413Z,22.90
2018-09-28T01:08:59.665Z,22.90
2018-09-28T01:11:28.161Z,22.90
2018-09-28T01:13:56.305Z,22.90
2018-09-28T01:16:24.449Z,22.90
2018-09-28T01:18:52.558Z,22.90
2018-09-28T01:21:20.653Z,22.90
2018-09-28T01:23:48.771Z,22.90
2018-09-28T01:26:16.869Z,22.90
2018-09-28T01:28:45.036Z,22.90
2018-09-28T01:31:13.161Z,22.90
2018-09-28T01:33:41.312Z,22.90
2018-09-28T01:36:09.461Z,22.90
2018-09-28T01:38:37.569Z,22.90
2018-09-28T01:41:05.682Z,22.90
2018-09-28T01:43:34.174Z,22.90
2018-09-28T01:46:02.321Z,22.90
2018-09-28T01:48:30.474Z,22.90
2018-09-28T01:50:58.613Z,22.90
2018-09-28T01:53:26.714Z,22.90
2018-09-28T01:55:54.867Z,22.90
2018-09-28T01:58:22.972Z,22.90
2018-09-28T02:00:51.110Z,22.80
2018-09-28T02:03:19.229Z,22.90
2018-09-28T02:05:47.412Z,22.80
2018-09-28T02:08:15.555Z,22.80
2018-09-28T02:10:43.702Z,22.90
2018-09-28T02:13:11.894Z,22.90
2018-09-28T02:15:40.072Z,22.80
2018-09-28T02:18:08.445Z,22.80
2018-09-28T02:20:36.601Z,22.90
2018-09-28T02:23:04.936Z,22.80
2018-09-28T02:25:33.101Z,22.80
2018-09-28T02:28:01.295Z,22.80
2018-09-28T02:30:29.447Z,22.80
2018-09-28T02:32:57.560Z,22.80
2018-09-28T02:35:25.681Z,22.80
2018-09-28T02:37:54.054Z,22.80
2018-09-28T02:40:22.195Z,22.80
2018-09-28T02:42:50.336Z,22.80
2018-09-28T02:45:18.493Z,22.80
2018-09-28T02:47:46.679Z,22.80
2018-09-28T02:50:14.879Z,22.80
2018-09-28T02:52:43.017Z,22.80
2018-09-28T02:55:11.167Z,22.80
2018-09-28T02:57:39.372Z,22.80
2018-09-28T03:00:07.525Z,22.80
2018-09-28T03:02:35.666Z,22.80
2018-09-28T03:05:03.818Z,22.80
2018-09-28T03:07:31.937Z,22.80
2018-09-28T03:10:00.082Z,22.80
2018-09-28T03:12:28.193Z,22.80
2018-09-28T03:14:56.362Z,22.80
2018-09-28T03:17:24.832Z,22.80
2018-09-28T03:19:52.974Z,22.80
2018-09-28T03:22:21.168Z,22.80
2018-09-28T03:24:49.371Z,22.80
2018-09-28T03:27:17.491Z,22.80
2018-09-28T03:29:45.656Z,22.70
2018-09-28T03:32:13.774Z,22.80
2018-09-28T03:34:41.893Z,22.80
2018-09-28T03:37:10.068Z,22.80
2018-09-28T03:39:38.246Z,22.70
2018-09-28T03:42:06.350Z,22.80
2018-09-28T03:44:34.529Z,22.70
2018-09-28T03:47:03.055Z,22.80
2018-09-28T03:49:31.183Z,22.80
2018-09-28T03:51:59.426Z,22.70
2018-09-28T03:54:27.649Z,22.70
2018-09-28T03:56:55.770Z,22.80
2018-09-28T03:59:24.110Z,22.70
2018-09-28T04:01:52.321Z,22.70
2018-09-28T04:04:20.456Z,22.70
2018-09-28T04:06:48.725Z,22.70
2018-09-28T04:09:16.832Z,22.80
2018-09-28T04:11:45.031Z,22.70
2018-09-28T04:14:13.177Z,22.80
2018-09-28T04:16:41.332Z,22.70
2018-09-28T04:19:09.526Z,22.80
2018-09-28T04:21:37.739Z,22.70
2018-09-28T04:24:05.891Z,22.80
2018-09-28T04:26:34.034Z,22.70
2018-09-28T04:29:02.221Z,22.70
2018-09-28T04:31:30.368Z,22.70
2018-09-28T04:33:58.490Z,22.70
2018-09-28T04:36:26.691Z,22.70
2018-09-28T04:38:54.841Z,22.70
2018-09-28T04:41:23.017Z,22.70
2018-09-28T04:43:51.154Z,22.70
2018-09-28T04:46:19.285Z,22.70
2018-09-28T04:48:47.395Z,22.70
2018-09-28T04:51:15.485Z,22.70
2018-09-28T04:53:43.638Z,22.70
2018-09-28T04:56:11.746Z,22.70
2018-09-28T04:58:39.977Z,22.70
2018-09-28T05:01:08.091Z,22.70
2018-09-28T05:03:36.250Z,22.70
2018-09-28T05:06:04.390Z,22.70
2018-09-28T05:08:32.666Z,22.70
2018-09-28T05:11:00.805Z,22.70
2018-09-28T05:13:28.947Z,22.70
2018-09-28T05:15:57.093Z,22.70
2018-09-28T05:18:25.300Z,22.70
2018-09-28T05:20:53.481Z,22.70
2018-09-28T05:23:21.616Z,22.70
2018-09-28T05:25:49.785Z,22.70
2018-09-28T05:28:17.994Z,22.70
2018-09-28T05:30:53.962Z,22.70
2018-09-28T05:33:14.474Z,22.70
2018-09-28T05:35:43.509Z,22.70
2018-09-28T05:38:11.712Z,22.70
2018-09-28T05:40:40.252Z,22.70
2018-09-28T05:43:08.494Z,22.60
2018-09-28T05:45:36.630Z,22.70
2018-09-28T05:48:04.889Z,22.70
2018-09-28T05:50:33.064Z,22.60
2018-09-28T05:53:01.197Z,22.70
2018-09-28T05:55:29.402Z,22.70
2018-09-28T05:58:02.973Z,22.70
2018-09-28T06:00:36.547Z,22.70
2018-09-28T06:03:07.978Z,22.70
2018-09-28T06:05:39.183Z,22.70
2018-09-28T06:08:07.296Z,22.70
2018-09-28T06:10:35.557Z,22.70
2018-09-28T06:13:03.685Z,22.60
2018-09-28T06:15:31.965Z,22.60
2018-09-28T06:18:00.227Z,22.70
2018-09-28T06:20:28.248Z,22.70
2018-09-28T06:22:56.526Z,22.70
2018-09-28T06:25:24.867Z,22.70
2018-09-28T06:27:53.238Z,22.60
2018-09-28T06:30:21.886Z,22.70
2018-09-28T06:32:50.098Z,22.70
2018-09-28T06:35:18.399Z,22.60
2018-09-28T06:37:46.579Z,22.70
2018-09-28T06:40:14.741Z,22.60
2018-09-28T06:42:42.936Z,22.60
2018-09-28T06:45:11.066Z,22.70
2018-09-28T06:47:39.214Z,22.60
2018-09-28T06:50:07.330Z,22.60
2018-09-28T06:52:35.462Z,22.70
2018-09-28T06:55:03.942Z,22.60
2018-09-28T06:57:32.216Z,22.60
2018-09-28T07:00:00.607Z,22.60
2018-09-28T07:02:28.794Z,22.60
2018-09-28T07:04:56.926Z,22.60
2018-09-28T07:07:25.109Z,22.60
2018-09-28T07:09:53.298Z,22.70
2018-09-28T07:12:21.565Z,22.60
2018-09-28T07:14:49.690Z,22.70
2018-09-28T07:17:17.827Z,22.60
2018-09-28T07:19:46.028Z,22.70
2018-09-28T07:22:14.170Z,22.70
2018-09-28T07:24:42.350Z,22.60
2018-09-28T07:27:10.445Z,22.70
2018-09-28T07:29:38.615Z,22.60
2018-09-28T07:32:06.779Z,22.70
2018-09-28T07:34:35.002Z,22.60
2018-09-28T07:37:03.234Z,22.60
2018-09-28T07:39:31.237Z,22.60
2018-09-28T07:41:59.533Z,22.60
2018-09-28T07:44:27.645Z,22.60
2018-09-28T07:46:55.771Z,22.60
2018-09-28T07:49:24.056Z,22.60
2018-09-28T07:51:52.172Z,22.60
2018-09-28T07:54:20.350Z,22.70
2018-09-28T07:56:48.531Z,22.60
2018-09-28T07:59:16.676Z,22.60
2018-09-28T08:01:44.828Z,22.60
2018-09-28T08:04:12.940Z,22.70
2018-09-28T08:06:41.058Z,22.60
2018-09-28T08:09:10.377Z,22.60
2018-09-28T08:11:38.548Z,22.60
2018-09-28T08:14:07.236Z,22.60
2018-09-28T08:16:35.374Z,22.60
2018-09-28T08:19:03.495Z,22.60
2018-09-28T08:21:31.696Z,22.60
2018-09-28T08:23:59.905Z,22.70
2018-09-28T08:26:28.022Z,22.60
2018-09-28T08:28:56.179Z,22.60
2018-09-28T08:31:24.394Z,22.60
2018-09-28T08:33:52.514Z,22.60
2018-09-28T08:36:20.654Z,22.60
2018-09-28T08:38:48.835Z,22.60
2018-09-28T08:41:17.054Z,22.60
2018-09-28T08:43:45.292Z,22.70
2018-09-28T08:46:13.345Z,22.70
2018-09-28T08:48:41.474Z,22.70
2018-09-28T08:51:09.654Z,22.70
2018-09-28T08:53:38.005Z,22.70
2018-09-28T08:56:06.322Z,22.70
2018-09-28T08:58:34.446Z,22.70
2018-09-28T09:01:02.584Z,22.70
2018-09-28T09:03:30.798Z,22.70
2018-09-28T09:05:58.941Z,22.70
2018-09-28T09:08:27.341Z,22.80
2018-09-28T09:10:55.516Z,22.80
2018-09-28T09:13:23.662Z,22.80
2018-09-28T09:15:51.817Z,22.80
2018-09-28T09:18:20.231Z,22.80
2018-09-28T09:20:48.349Z,22.80
2018-09-28T09:23:16.618Z,22.90
2018-09-28T09:25:44.805Z,22.80
2018-09-28T09:28:13.003Z,22.80
2018-09-28T09:30:41.222Z,22.90
2018-09-28T09:33:09.517Z,22.90
2018-09-28T09:35:37.709Z,22.80
2018-09-28T09:38:05.846Z,22.90
2018-09-28T09:40:33.956Z,22.90
2018-09-28T09:43:02.110Z,22.90
2018-09-28T09:45:30.226Z,22.90
2018-09-28T09:47:58.328Z,22.90
2018-09-28T09:50:26.430Z,22.90
2018-09-28T09:52:54.614Z,22.90
2018-09-28T09:55:22.733Z,22.90
2018-09-28T09:57:50.918Z,22.90
2018-09-28T10:00:24.314Z,22.90
2018-09-28T10:02:57.964Z,23.00
2018-09-28T10:05:26.163Z,23.00
2018-09-28T10:07:54.390Z,23.00
2018-09-28T10:10:22.558Z,23.00
2018-09-28T10:12:50.735Z,23.00
2018-09-28T10:15:19.245Z,23.00
2018-09-28T10:17:47.354Z,23.10
2018-09-28T10:20:15.503Z,23.10
2018-09-28T10:22:43.654Z,23.10
2018-09-28T10:25:11.771Z,23.10
2018-09-28T10:27:40.624Z,23.10
2018-09-28T10:30:08.758Z,23.10
2018-09-28T10:32:36.942Z,23.10
2018-09-28T10:35:05.142Z,23.10
2018-09-28T10:37:33.375Z,23.10
2018-09-28T10:40:01.561Z,23.20
2018-09-28T10:42:29.740Z,23.20
2018-09-28T10:44:57.913Z,23.20
2018-09-28T10:47:26.151Z,23.20
2018-09-28T10:49:54.278Z,23.30
2018-09-28T10:52:22.624Z,23.30
2018-09-28T10:54:50.587Z,23.30
2018-09-28T10:57:18.733Z,23.30
2018-09-28T10:59:46.957Z,23.30
2018-09-28T11:02:15.081Z,23.30
2018-09-28T11:04:43.304Z,23.30
2018-09-28T11:07:11.444Z,23.40
2018-09-28T11:09:39.704Z,23.50
2018-09-28T11:12:07.958Z,23.50
2018-09-28T11:14:36.440Z,23.50
2018-09-28T11:17:04.739Z,23.50
2018-09-28T11:19:32.929Z,23.50
2018-09-28T11:22:01.117Z,23.60
2018-09-28T11:24:29.254Z,23.60
2018-09-28T11:26:57.396Z,23.60
2018-09-28T11:29:25.667Z,23.60
2018-09-28T11:31:53.871Z,23.60
2018-09-28T11:34:22.035Z,23.70
2018-09-28T11:36:51.130Z,23.70
2018-09-28T11:39:19.490Z,23.70
2018-09-28T11:41:47.795Z,23.70
2018-09-28T11:44:15.926Z,23.70
2018-09-28T11:46:44.338Z,23.70
2018-09-28T11:49:12.549Z,23.70
2018-09-28T11:51:40.692Z,23.80
2018-09-28T11:54:08.859Z,23.70
2018-09-28T11:56:36.984Z,23.80
2018-09-28T11:59:05.136Z,23.80
2018-09-28T12:01:33.338Z,23.80
2018-09-28T12:04:01.583Z,23.90
2018-09-28T12:06:29.857Z,23.80
2018-09-28T12:08:58.158Z,23.80
2018-09-28T12:11:26.315Z,23.80
2018-09-28T12:13:54.526Z,23.80
2018-09-28T12:16:22.655Z,23.80
2018-09-28T12:18:50.923Z,23.80
2018-09-28T12:21:19.139Z,23.80
2018-09-28T12:23:47.413Z,23.90
2018-09-28T12:26:15.553Z,23.90
2018-09-28T12:28:43.734Z,23.90
2018-09-28T12:31:12.032Z,23.90
2018-09-28T12:33:40.261Z,23.90
2018-09-28T12:36:08.346Z,23.90
2018-09-28T12:38:36.630Z,23.90
2018-09-28T12:41:04.794Z,23.90
2018-09-28T12:43:35.034Z,23.90
2018-09-28T12:46:01.172Z,23.90
2018-09-28T12:48:29.420Z,23.90
2018-09-28T12:50:57.562Z,23.90
2018-09-28T12:53:25.718Z,23.90
2018-09-28T12:55:54.366Z,24.00
2018-09-28T12:58:23.762Z,24.00
2018-09-28T13:00:52.095Z,24.00
2018-09-28T13:03:20.691Z,24.00
2018-09-28T13:05:48.820Z,24.00
2018-09-28T13:08:17.026Z,24.00
2018-09-28T13:10:46.065Z,24.00
2018-09-28T13:13:14.178Z,24.00
2018-09-28T13:15:42.458Z,24.00
2018-09-28T13:18:10.681Z,24.00
2018-09-28T13:20:39.018Z,24.00
2018-09-28T13:23:07.108Z,24.00
2018-09-28T13:25:35.281Z,24.10
2018-09-28T13:28:03.785Z,24.00
2018-09-28T13:30:31.980Z,24.10
2018-09-28T13:33:00.165Z,24.10
2018-09-28T13:35:28.352Z,24.10
2018-09-28T13:37:56.461Z,24.10
2018-09-28T13:40:24.649Z,24.20
2018-09-28T13:42:52.924Z,24.20
2018-09-28T13:45:21.227Z,24.20
2018-09-28T13:47:49.398Z,24.10
2018-09-28T13:50:17.752Z,24.20
2018-09-28T13:52:45.945Z,24.20
2018-09-28T13:55:14.213Z,24.20
2018-09-28T13:57:42.793Z,24.20
2018-09-28T14:00:11.062Z,24.20
2018-09-28T14:02:39.463Z,24.20
2018-09-28T14:05:07.645Z,24.20
2018-09-28T14:07:36.022Z,24.30
2018-09-28T14:10:04.282Z,24.20
2018-09-28T14:12:32.490Z,24.30
2018-09-28T14:15:00.581Z,24.20
2018-09-28T14:17:29.121Z,24.30
2018-09-28T14:19:57.263Z,24.30
2018-09-28T14:22:25.447Z,24.30
2018-09-28T14:24:53.652Z,24.30
2018-09-28T14:27:21.758Z,24.30
2018-09-28T14:29:49.905Z,24.30
2018-09-28T14:32:18.185Z,24.40
2018-09-28T14:34:46.375Z,24.40
2018-09-28T14:37:14.557Z,24.30
2018-09-28T14:39:42.747Z,24.30
2018-09-28T14:42:10.915Z,24.40
2018-09-28T14:44:39.129Z,24.40
2018-09-28T14:47:07.470Z,24.40
2018-09-28T14:49:35.617Z,24.40
2018-09-28T14:52:03.853Z,24.40
2018-09-28T14:54:32.066Z,24.40
2018-09-28T14:57:00.193Z,24.40
2018-09-28T14:59:28.558Z,24.40
2018-09-28T15:01:56.705Z,24.40
2018-09-28T15:04:24.938Z,24.50
2018-09-28T15:06:53.244Z,24.50
2018-09-28T15:09:22.250Z,24.50
2018-09-28T15:11:50.424Z,24.50
2018-09-28T15:14:18.565Z,24.50
2018-09-28T15:16:46.846Z,24.50
2018-09-28T15:19:14.958Z,24.50
2018-09-28T15:21:43.259Z,24.50
2018-09-28T15:24:11.628Z,24.50
2018-09-28T15:26:39.733Z,24.60
2018-09-28T15:29:07.889Z,24.60
2018-09-28T15:31:36.146Z,24.60
2018-09-28T15:34:04.367Z,24.60
2018-09-28T15:36:32.832Z,24.60
2018-09-28T15:39:00.990Z,24.60
2018-09-28T15:41:29.134Z,24.60
2018-09-28T15:43:57.315Z,24.60
2018-09-28T15:46:25.448Z,24.60
2018-09-28T15:48:53.705Z,24.60
2018-09-28T15:51:21.889Z,24.60
2018-09-28T15:53:50.043Z,24.60
2018-09-28T15:56:18.329Z,24.60
2018-09-28T15:58:46.537Z,24.60
2018-09-28T16:01:14.783Z,24.60
2018-09-28T16:03:42.993Z,24.60
2018-09-28T16:06:11.230Z,24.60
2018-09-28T16:08:39.577Z,24.60
2018-09-28T16:11:07.930Z,24.60
2018-09-28T16:13:36.376Z,24.60
2018-09-28T16:16:04.542Z,24.50
2018-09-28T16:18:33.028Z,24.50
2018-09-28T16:21:01.362Z,24.50
2018-09-28T16:23:29.649Z,24.50
2018-09-28T16:25:57.860Z,24.50
2018-09-28T16:28:26.231Z,24.50
2018-09-28T16:30:54.694Z,24.50
2018-09-28T16:33:22.951Z,24.50
2018-09-28T16:35:51.371Z,24.50
2018-09-28T16:38:19.550Z,24.50
2018-09-28T16:40:47.974Z,24.40
2018-09-28T16:43:16.458Z,24.50
2018-09-28T16:45:44.934Z,24.40
2018-09-28T16:48:14.019Z,24.40
2018-09-28T16:50:42.196Z,24.30
2018-09-28T16:53:10.379Z,24.30
2018-09-28T16:55:38.503Z,24.30
2018-09-28T16:58:06.671Z,24.30
2018-09-28T17:00:35.054Z,24.30
2018-09-28T17:03:03.223Z,24.40
2018-09-28T17:05:32.859Z,24.30
2018-09-28T17:08:01.420Z,24.30
2018-09-28T17:10:29.694Z,24.30
2018-09-28T17:12:57.940Z,24.30
2018-09-28T17:15:26.069Z,24.40
2018-09-28T17:17:54.209Z,24.30
2018-09-28T17:20:22.380Z,24.30
2018-09-28T17:22:50.746Z,24.30
2018-09-28T17:25:18.850Z,24.30
2018-09-28T17:27:47.049Z,23.70
2018-09-28T17:30:15.203Z,23.40
2018-09-28T17:32:43.302Z,23.10
2018-09-28T17:35:11.513Z,22.90
2018-09-28T17:37:39.672Z,22.80
2018-09-28T17:40:07.974Z,22.60
2018-09-28T17:42:36.116Z,22.60
2018-09-28T17:45:04.464Z,22.50
2018-09-28T17:47:32.786Z,22.60
2018-09-28T17:50:01.078Z,22.90
2018-09-28T17:52:29.183Z,23.00
2018-09-28T17:54:57.346Z,23.10
2018-09-28T17:57:25.666Z,23.20
2018-09-28T17:59:53.785Z,23.20
2018-09-28T18:02:21.908Z,23.20
2018-09-28T18:04:50.098Z,23.20
2018-09-28T18:07:18.297Z,23.20
2018-09-28T18:09:46.526Z,23.20
2018-09-28T18:12:14.960Z,23.20
2018-09-28T18:14:43.094Z,23.20
2018-09-28T18:17:11.219Z,23.20
2018-09-28T18:19:39.366Z,23.30
2018-09-28T18:22:07.870Z,23.30
2018-09-28T18:24:36.062Z,23.20
2018-09-28T18:27:04.210Z,23.20
2018-09-28T18:29:32.358Z,23.20
2018-09-28T18:32:00.465Z,23.30
2018-09-28T18:34:28.584Z,23.30
2018-09-28T18:36:56.711Z,23.30
2018-09-28T18:39:24.961Z,23.30
2018-09-28T18:41:53.168Z,23.30
2018-09-28T18:44:21.287Z,23.30
2018-09-28T18:46:49.418Z,23.30
2018-09-28T18:49:17.539Z,23.20
2018-09-28T18:51:45.759Z,23.20
2018-09-28T18:54:13.863Z,23.30
2018-09-28T18:56:41.982Z,23.30
2018-09-28T18:59:10.503Z,23.20
2018-09-28T19:01:38.615Z,23.20
2018-09-28T19:04:07.107Z,23.20
2018-09-28T19:06:35.172Z,23.20
2018-09-28T19:09:04.827Z,23.20
2018-09-28T19:11:32.943Z,23.20
2018-09-28T19:14:01.065Z,23.20
2018-09-28T19:16:29.281Z,23.20
2018-09-28T19:18:57.414Z,23.20
2018-09-28T19:21:25.808Z,23.20
2018-09-28T19:23:53.906Z,23.20
2018-09-28T19:26:22.028Z,23.20
2018-09-28T19:28:50.198Z,23.20
2018-09-28T19:31:18.329Z,23.20
2018-09-28T19:33:46.438Z,23.20
2018-09-28T19:36:14.874Z,23.20
2018-09-28T19:38:42.989Z,23.20
2018-09-28T19:41:11.125Z,23.10
2018-09-28T19:43:39.224Z,23.20
2018-09-28T19:46:07.537Z,23.10
2018-09-28T19:48:35.701Z,23.10
2018-09-28T19:51:03.813Z,23.10
2018-09-28T19:53:31.945Z,23.10
2018-09-28T19:56:00.149Z,23.10
2018-09-28T19:58:28.272Z,23.10
2018-09-28T20:00:56.404Z,23.10
2018-09-28T20:03:24.543Z,23.10
2018-09-28T20:05:52.651Z,23.10
2018-09-28T20:08:20.801Z,23.10
2018-09-28T20:10:48.911Z,23.10
2018-09-28T20:13:17.245Z,23.10
2018-09-28T20:15:45.369Z,23.10
2018-09-28T20:18:13.524Z,23.10
2018-09-28T20:20:41.641Z,23.10
2018-09-28T20:23:09.877Z,23.10
2018-09-28T20:25:38.199Z,23.10
2018-09-28T20:28:06.330Z,23.10
2018-09-28T20:30:34.492Z,23.10
2018-09-28T20:33:02.606Z,23.10
2018-09-28T20:35:30.802Z,23.10
2018-09-28T20:37:58.926Z,23.10
2018-09-28T20:40:27.035Z,23.10
2018-09-28T20:42:55.185Z,23.00
2018-09-28T20:45:23.324Z,23.10
2018-09-28T20:47:51.479Z,23.00
2018-09-28T20:50:19.599Z,23.00
2018-09-28T20:52:47.799Z,23.00
2018-09-28T20:55:15.928Z,23.10
2018-09-28T20:57:44.166Z,23.00
2018-09-28T21:00:12.286Z,23.00
2018-09-28T21:02:40.403Z,23.00
2018-09-28T21:05:08.529Z,23.00
2018-09-28T21:07:36.743Z,23.00
2018-09-28T21:10:04.926Z,23.00
2018-09-28T21:12:33.050Z,23.00
2018-09-28T21:15:01.168Z,23.00
2018-09-28T21:17:29.266Z,23.00
2018-09-28T21:19:57.410Z,23.00
2018-09-28T21:22:25.558Z,23.00
2018-09-28T21:24:53.716Z,23.00
2018-09-28T21:27:21.831Z,23.00
2018-09-28T21:29:49.976Z,23.00
2018-09-28T21:32:18.142Z,23.00
2018-09-28T21:34:46.321Z,23.00
2018-09-28T21:37:14.474Z,23.00
2018-09-28T21:39:42.607Z,23.00
2018-09-28T21:42:10.757Z,23.00
2018-09-28T21:44:38.885Z,23.00
2018-09-28T21:47:07.017Z,23.00
2018-09-28T21:49:35.166Z,23.00
2018-09-28T21:52:03.313Z,23.00
2018-09-28T21:54:31.431Z,23.00
2018-09-28T21:56:59.546Z,23.00
2018-09-28T21:59:27.718Z,23.00
2018-09-28T22:01:55.826Z,23.00
2018-09-28T22:04:24.017Z,22.90
2018-09-28T22:06:52.177Z,23.00
2018-09-28T22:09:20.286Z,23.00
2018-09-28T22:11:48.486Z,23.00
2018-09-28T22:14:16.685Z,23.00
2018-09-28T22:16:44.950Z,23.00
2018-09-28T22:19:13.150Z,22.90
2018-09-28T22:21:41.318Z,22.90
2018-09-28T22:24:09.445Z,22.90
2018-09-28T22:26:37.656Z,22.90
2018-09-28T22:29:05.771Z,22.90
2018-09-28T22:31:33.952Z,22.90
2018-09-28T22:34:02.127Z,22.90
2018-09-28T22:36:30.314Z,22.90
2018-09-28T22:38:58.445Z,22.90
2018-09-28T22:41:26.570Z,22.90
2018-09-28T22:43:54.850Z,22.90
2018-09-28T22:46:22.920Z,22.90
2018-09-28T22:48:51.134Z,22.90
2018-09-28T22:51:19.310Z,22.90
2018-09-28T22:53:47.466Z,22.90
2018-09-28T22:56:15.602Z,22.90
2018-09-28T22:58:43.726Z,22.90
2018-09-28T23:01:11.837Z,22.90
2018-09-28T23:03:40.016Z,22.90
2018-09-28T23:06:08.226Z,22.90
2018-09-28T23:08:36.369Z,22.90
2018-09-28T23:11:04.490Z,22.90
2018-09-28T23:13:32.606Z,22.80
2018-09-28T23:16:00.753Z,22.80
2018-09-28T23:18:28.879Z,22.90
2018-09-28T23:20:57.082Z,22.80
2018-09-28T23:23:25.234Z,22.90
2018-09-28T23:25:53.369Z,22.80
2018-09-28T23:28:21.497Z,22.80
2018-09-28T23:30:49.613Z,22.80
2018-09-28T23:33:17.919Z,22.80
2018-09-28T23:35:46.034Z,22.80
2018-09-28T23:38:14.170Z,22.80
2018-09-28T23:40:42.295Z,22.80
2018-09-28T23:43:10.445Z,22.80
2018-09-28T23:45:38.567Z,22.80
2018-09-28T23:48:06.853Z,22.80
2018-09-28T23:50:35.015Z,22.80
2018-09-28T23:53:03.185Z,22.80
2018-09-28T23:55:31.384Z,22.80
2018-09-28T23:57:59.511Z,22.80
